sensor_id;sensor_type;location;lat;lon;timestamp;temperature;humidity
27978;DHT22;15314;49.248;6.968;2023-12-28T00:00:18;8.90;98.70
27978;DHT22;15314;49.248;6.968;2023-12-28T00:01:19;8.90;98.70
27978;DHT22;15314;49.248;6.968;2023-12-28T00:02:19;8.90;98.70
27978;DHT22;15314;49.248;6.968;2023-12-28T00:03:20;9.10;98.70
27978;DHT22;15314;49.248;6.968;2023-12-28T00:04:20;9.00;98.60
27978;DHT22;15314;49.248;6.968;2023-12-28T00:05:21;8.90;98.50
27978;DHT22;15314;49.248;6.968;2023-12-28T00:06:22;9.00;98.70
27978;DHT22;15314;49.248;6.968;2023-12-28T00:07:22;9.00;98.70
27978;DHT22;15314;49.248;6.968;2023-12-28T00:08:23;9.00;98.60
27978;DHT22;15314;49.248;6.968;2023-12-28T00:09:23;9.00;98.70
27978;DHT22;15314;49.248;6.968;2023-12-28T00:10:26;9.00;98.60
27978;DHT22;15314;49.248;6.968;2023-12-28T00:11:27;9.00;98.50
27978;DHT22;15314;49.248;6.968;2023-12-28T00:12:28;9.00;98.50
27978;DHT22;15314;49.248;6.968;2023-12-28T00:13:28;9.00;98.60
27978;DHT22;15314;49.248;6.968;2023-12-28T00:14:29;9.00;98.60
27978;DHT22;15314;49.248;6.968;2023-12-28T00:15:29;9.10;98.80
27978;DHT22;15314;49.248;6.968;2023-12-28T00:16:31;9.10;98.50
27978;DHT22;15314;49.248;6.968;2023-12-28T00:17:37;9.10;98.50
27978;DHT22;15314;49.248;6.968;2023-12-28T00:18:37;9.10;98.50
27978;DHT22;15314;49.248;6.968;2023-12-28T00:19:38;9.10;98.50
27978;DHT22;15314;49.248;6.968;2023-12-28T00:20:38;9.20;98.50
27978;DHT22;15314;49.248;6.968;2023-12-28T00:21:39;9.10;98.30
27978;DHT22;15314;49.248;6.968;2023-12-28T00:22:40;9.20;98.50
27978;DHT22;15314;49.248;6.968;2023-12-28T00:23:41;9.20;98.30
27978;DHT22;15314;49.248;6.968;2023-12-28T00:24:41;9.20;98.30
27978;DHT22;15314;49.248;6.968;2023-12-28T00:25:42;9.20;98.40
27978;DHT22;15314;49.248;6.968;2023-12-28T00:26:42;9.20;98.20
27978;DHT22;15314;49.248;6.968;2023-12-28T00:27:43;9.20;98.10
27978;DHT22;15314;49.248;6.968;2023-12-28T00:28:45;9.20;98.10
27978;DHT22;15314;49.248;6.968;2023-12-28T00:29:46;9.30;98.20
27978;DHT22;15314;49.248;6.968;2023-12-28T00:30:47;9.30;98.00
27978;DHT22;15314;49.248;6.968;2023-12-28T00:31:47;9.20;97.90
27978;DHT22;15314;49.248;6.968;2023-12-28T00:32:48;9.20;98.10
27978;DHT22;15314;49.248;6.968;2023-12-28T00:33:48;9.20;98.00
27978;DHT22;15314;49.248;6.968;2023-12-28T00:34:50;9.20;98.00
27978;DHT22;15314;49.248;6.968;2023-12-28T00:35:51;9.20;98.10
27978;DHT22;15314;49.248;6.968;2023-12-28T00:36:51;9.20;98.10
27978;DHT22;15314;49.248;6.968;2023-12-28T00:37:52;9.20;98.10
27978;DHT22;15314;49.248;6.968;2023-12-28T00:38:53;9.20;98.10
27978;DHT22;15314;49.248;6.968;2023-12-28T00:39:53;9.20;98.10
27978;DHT22;15314;49.248;6.968;2023-12-28T00:40:54;9.20;98.20
27978;DHT22;15314;49.248;6.968;2023-12-28T00:41:54;9.30;98.20
27978;DHT22;15314;49.248;6.968;2023-12-28T00:42:55;9.30;98.10
27978;DHT22;15314;49.248;6.968;2023-12-28T00:43:55;9.30;98.00
27978;DHT22;15314;49.248;6.968;2023-12-28T00:44:56;9.20;98.10
27978;DHT22;15314;49.248;6.968;2023-12-28T00:45:57;9.20;98.20
27978;DHT22;15314;49.248;6.968;2023-12-28T00:46:57;9.30;98.30
27978;DHT22;15314;49.248;6.968;2023-12-28T00:47:58;9.30;98.10
27978;DHT22;15314;49.248;6.968;2023-12-28T00:48:59;9.30;98.20
27978;DHT22;15314;49.248;6.968;2023-12-28T00:49:59;9.30;98.20
27978;DHT22;15314;49.248;6.968;2023-12-28T00:51:00;9.30;98.30
27978;DHT22;15314;49.248;6.968;2023-12-28T00:52:00;9.30;98.20
27978;DHT22;15314;49.248;6.968;2023-12-28T00:53:01;9.30;98.30
27978;DHT22;15314;49.248;6.968;2023-12-28T00:54:02;9.30;98.40
27978;DHT22;15314;49.248;6.968;2023-12-28T00:55:03;9.30;98.40
27978;DHT22;15314;49.248;6.968;2023-12-28T00:56:04;9.30;98.40
27978;DHT22;15314;49.248;6.968;2023-12-28T00:57:05;9.30;98.30
27978;DHT22;15314;49.248;6.968;2023-12-28T00:58:05;9.30;98.40
27978;DHT22;15314;49.248;6.968;2023-12-28T00:59:06;9.20;98.40
27978;DHT22;15314;49.248;6.968;2023-12-28T01:00:07;9.30;98.30
27978;DHT22;15314;49.248;6.968;2023-12-28T01:01:08;9.20;98.50
27978;DHT22;15314;49.248;6.968;2023-12-28T01:02:09;9.30;98.40
27978;DHT22;15314;49.248;6.968;2023-12-28T01:03:10;9.30;98.50
27978;DHT22;15314;49.248;6.968;2023-12-28T01:04:11;9.30;98.50
27978;DHT22;15314;49.248;6.968;2023-12-28T01:05:12;9.40;98.50
27978;DHT22;15314;49.248;6.968;2023-12-28T01:06:12;9.30;98.30
27978;DHT22;15314;49.248;6.968;2023-12-28T01:07:13;9.40;98.40
27978;DHT22;15314;49.248;6.968;2023-12-28T01:08:14;9.40;98.50
27978;DHT22;15314;49.248;6.968;2023-12-28T01:09:14;9.40;98.30
27978;DHT22;15314;49.248;6.968;2023-12-28T01:10:15;9.40;98.30
27978;DHT22;15314;49.248;6.968;2023-12-28T01:11:16;9.50;98.40
27978;DHT22;15314;49.248;6.968;2023-12-28T01:12:16;9.40;98.40
27978;DHT22;15314;49.248;6.968;2023-12-28T01:13:17;9.40;98.40
27978;DHT22;15314;49.248;6.968;2023-12-28T01:14:18;9.40;98.40
27978;DHT22;15314;49.248;6.968;2023-12-28T01:15:19;9.40;98.50
27978;DHT22;15314;49.248;6.968;2023-12-28T01:16:20;9.50;98.50
27978;DHT22;15314;49.248;6.968;2023-12-28T01:17:21;9.50;98.60
27978;DHT22;15314;49.248;6.968;2023-12-28T01:18:22;9.50;98.40
27978;DHT22;15314;49.248;6.968;2023-12-28T01:19:22;9.50;98.50
27978;DHT22;15314;49.248;6.968;2023-12-28T01:20:23;9.50;98.50
27978;DHT22;15314;49.248;6.968;2023-12-28T01:21:24;9.50;98.40
27978;DHT22;15314;49.248;6.968;2023-12-28T01:22:25;9.50;98.40
27978;DHT22;15314;49.248;6.968;2023-12-28T01:23:25;9.60;98.60
27978;DHT22;15314;49.248;6.968;2023-12-28T01:24:26;9.60;98.80
27978;DHT22;15314;49.248;6.968;2023-12-28T01:25:27;9.60;98.80
27978;DHT22;15314;49.248;6.968;2023-12-28T01:26:27;9.60;98.80
27978;DHT22;15314;49.248;6.968;2023-12-28T01:27:28;9.60;98.70
27978;DHT22;15314;49.248;6.968;2023-12-28T01:28:29;9.60;99.00
27978;DHT22;15314;49.248;6.968;2023-12-28T01:29:29;9.60;99.10
27978;DHT22;15314;49.248;6.968;2023-12-28T01:30:30;9.60;99.20
27978;DHT22;15314;49.248;6.968;2023-12-28T01:31:31;9.70;99.40
27978;DHT22;15314;49.248;6.968;2023-12-28T01:32:31;9.60;99.20
27978;DHT22;15314;49.248;6.968;2023-12-28T01:33:32;9.60;99.50
27978;DHT22;15314;49.248;6.968;2023-12-28T01:34:32;9.60;99.50
27978;DHT22;15314;49.248;6.968;2023-12-28T01:35:33;9.50;99.40
27978;DHT22;15314;49.248;6.968;2023-12-28T01:36:34;9.50;99.80
27978;DHT22;15314;49.248;6.968;2023-12-28T01:37:34;9.40;99.90
27978;DHT22;15314;49.248;6.968;2023-12-28T01:38:35;9.40;99.90
27978;DHT22;15314;49.248;6.968;2023-12-28T01:39:36;9.40;99.90
27978;DHT22;15314;49.248;6.968;2023-12-28T01:40:37;9.40;99.90
27978;DHT22;15314;49.248;6.968;2023-12-28T01:41:37;9.40;99.90
27978;DHT22;15314;49.248;6.968;2023-12-28T01:42:38;9.40;99.90
27978;DHT22;15314;49.248;6.968;2023-12-28T01:43:39;9.30;99.90
27978;DHT22;15314;49.248;6.968;2023-12-28T01:44:40;9.30;99.90
27978;DHT22;15314;49.248;6.968;2023-12-28T01:45:40;9.20;99.90
27978;DHT22;15314;49.248;6.968;2023-12-28T01:46:41;9.20;99.90
27978;DHT22;15314;49.248;6.968;2023-12-28T01:47:42;9.20;99.90
27978;DHT22;15314;49.248;6.968;2023-12-28T01:48:45;9.20;99.90
27978;DHT22;15314;49.248;6.968;2023-12-28T01:49:46;9.20;99.90
27978;DHT22;15314;49.248;6.968;2023-12-28T01:50:47;9.20;99.90
27978;DHT22;15314;49.248;6.968;2023-12-28T01:51:48;9.20;99.90
27978;DHT22;15314;49.248;6.968;2023-12-28T01:52:49;9.20;99.90
27978;DHT22;15314;49.248;6.968;2023-12-28T01:53:51;9.20;99.90
27978;DHT22;15314;49.248;6.968;2023-12-28T01:54:52;9.20;99.90
27978;DHT22;15314;49.248;6.968;2023-12-28T01:55:53;9.10;99.90
27978;DHT22;15314;49.248;6.968;2023-12-28T01:56:54;9.10;99.90
27978;DHT22;15314;49.248;6.968;2023-12-28T01:57:55;9.10;99.90
27978;DHT22;15314;49.248;6.968;2023-12-28T01:58:59;9.00;99.90
27978;DHT22;15314;49.248;6.968;2023-12-28T02:00:00;9.00;99.90
27978;DHT22;15314;49.248;6.968;2023-12-28T02:01:01;9.00;99.90
27978;DHT22;15314;49.248;6.968;2023-12-28T02:02:03;9.00;99.90
27978;DHT22;15314;49.248;6.968;2023-12-28T02:03:05;8.80;99.90
27978;DHT22;15314;49.248;6.968;2023-12-28T02:04:06;8.80;99.90
27978;DHT22;15314;49.248;6.968;2023-12-28T02:05:09;8.80;99.90
27978;DHT22;15314;49.248;6.968;2023-12-28T02:06:10;8.80;99.90
27978;DHT22;15314;49.248;6.968;2023-12-28T02:07:14;8.80;99.90
27978;DHT22;15314;49.248;6.968;2023-12-28T02:08:15;8.70;99.90
27978;DHT22;15314;49.248;6.968;2023-12-28T02:09:16;8.70;99.90
27978;DHT22;15314;49.248;6.968;2023-12-28T02:10:17;8.70;99.90
27978;DHT22;15314;49.248;6.968;2023-12-28T02:11:19;8.60;99.90
27978;DHT22;15314;49.248;6.968;2023-12-28T02:12:20;8.60;99.90
27978;DHT22;15314;49.248;6.968;2023-12-28T02:13:21;8.60;99.90
27978;DHT22;15314;49.248;6.968;2023-12-28T02:14:22;8.60;99.90
27978;DHT22;15314;49.248;6.968;2023-12-28T02:15:23;8.60;99.90
27978;DHT22;15314;49.248;6.968;2023-12-28T02:16:36;8.60;99.90
27978;DHT22;15314;49.248;6.968;2023-12-28T02:17:55;8.60;99.90
27978;DHT22;15314;49.248;6.968;2023-12-28T02:19:02;8.60;99.90
27978;DHT22;15314;49.248;6.968;2023-12-28T02:20:05;8.60;99.90
27978;DHT22;15314;49.248;6.968;2023-12-28T02:21:08;8.50;99.90
27978;DHT22;15314;49.248;6.968;2023-12-28T02:22:11;8.50;99.90
27978;DHT22;15314;49.248;6.968;2023-12-28T02:23:13;8.50;99.90
27978;DHT22;15314;49.248;6.968;2023-12-28T02:24:14;8.50;99.90
27978;DHT22;15314;49.248;6.968;2023-12-28T02:25:14;8.60;99.90
27978;DHT22;15314;49.248;6.968;2023-12-28T02:26:18;8.60;99.90
27978;DHT22;15314;49.248;6.968;2023-12-28T02:27:19;8.60;99.90
27978;DHT22;15314;49.248;6.968;2023-12-28T02:28:20;8.60;99.90
27978;DHT22;15314;49.248;6.968;2023-12-28T02:29:21;8.60;99.90
27978;DHT22;15314;49.248;6.968;2023-12-28T02:30:22;8.60;99.90
27978;DHT22;15314;49.248;6.968;2023-12-28T02:31:35;8.60;99.90
27978;DHT22;15314;49.248;6.968;2023-12-28T02:33:47;8.70;99.90
27978;DHT22;15314;49.248;6.968;2023-12-28T02:34:51;8.60;99.90
27978;DHT22;15314;49.248;6.968;2023-12-28T02:35:59;8.70;99.90
27978;DHT22;15314;49.248;6.968;2023-12-28T02:37:01;8.60;99.90
27978;DHT22;15314;49.248;6.968;2023-12-28T02:38:11;8.60;99.90
27978;DHT22;15314;49.248;6.968;2023-12-28T02:39:14;8.60;99.90
27978;DHT22;15314;49.248;6.968;2023-12-28T02:40:15;8.70;99.90
27978;DHT22;15314;49.248;6.968;2023-12-28T02:41:17;8.70;99.90
27978;DHT22;15314;49.248;6.968;2023-12-28T02:42:19;8.70;99.90
27978;DHT22;15314;49.248;6.968;2023-12-28T02:43:19;8.70;99.90
27978;DHT22;15314;49.248;6.968;2023-12-28T02:44:20;8.80;99.90
27978;DHT22;15314;49.248;6.968;2023-12-28T02:45:21;8.80;99.90
27978;DHT22;15314;49.248;6.968;2023-12-28T02:46:22;8.80;99.90
27978;DHT22;15314;49.248;6.968;2023-12-28T02:47:22;8.90;99.90
27978;DHT22;15314;49.248;6.968;2023-12-28T02:48:23;8.90;99.90
27978;DHT22;15314;49.248;6.968;2023-12-28T02:49:23;8.90;99.90
27978;DHT22;15314;49.248;6.968;2023-12-28T02:50:24;8.80;99.90
27978;DHT22;15314;49.248;6.968;2023-12-28T02:51:25;8.70;99.90
27978;DHT22;15314;49.248;6.968;2023-12-28T02:52:26;8.70;99.90
27978;DHT22;15314;49.248;6.968;2023-12-28T02:53:26;8.70;99.90
27978;DHT22;15314;49.248;6.968;2023-12-28T02:54:27;8.70;99.90
27978;DHT22;15314;49.248;6.968;2023-12-28T02:55:27;8.70;99.90
27978;DHT22;15314;49.248;6.968;2023-12-28T02:56:28;8.70;99.90
27978;DHT22;15314;49.248;6.968;2023-12-28T02:57:30;8.70;99.90
27978;DHT22;15314;49.248;6.968;2023-12-28T02:58:30;8.70;99.90
27978;DHT22;15314;49.248;6.968;2023-12-28T02:59:31;8.70;99.90
27978;DHT22;15314;49.248;6.968;2023-12-28T03:00:31;8.70;99.90
27978;DHT22;15314;49.248;6.968;2023-12-28T03:01:32;8.70;99.90
27978;DHT22;15314;49.248;6.968;2023-12-28T03:02:33;8.60;99.90
27978;DHT22;15314;49.248;6.968;2023-12-28T03:03:33;8.60;99.90
27978;DHT22;15314;49.248;6.968;2023-12-28T03:04:34;8.60;99.90
27978;DHT22;15314;49.248;6.968;2023-12-28T03:05:34;8.60;99.90
27978;DHT22;15314;49.248;6.968;2023-12-28T03:06:35;8.60;99.90
27978;DHT22;15314;49.248;6.968;2023-12-28T03:07:36;8.60;99.90
27978;DHT22;15314;49.248;6.968;2023-12-28T03:08:37;8.60;99.90
27978;DHT22;15314;49.248;6.968;2023-12-28T03:09:37;8.60;99.90
27978;DHT22;15314;49.248;6.968;2023-12-28T03:10:39;8.60;99.90
27978;DHT22;15314;49.248;6.968;2023-12-28T03:11:40;8.50;99.90
27978;DHT22;15314;49.248;6.968;2023-12-28T03:12:41;8.50;99.90
27978;DHT22;15314;49.248;6.968;2023-12-28T03:13:41;8.50;99.90
27978;DHT22;15314;49.248;6.968;2023-12-28T03:14:43;8.50;99.90
27978;DHT22;15314;49.248;6.968;2023-12-28T03:15:43;8.40;99.90
27978;DHT22;15314;49.248;6.968;2023-12-28T03:16:44;8.40;99.90
27978;DHT22;15314;49.248;6.968;2023-12-28T03:17:44;8.30;99.90
27978;DHT22;15314;49.248;6.968;2023-12-28T03:18:45;8.30;99.90
27978;DHT22;15314;49.248;6.968;2023-12-28T03:19:46;8.30;99.90
27978;DHT22;15314;49.248;6.968;2023-12-28T03:20:46;8.30;99.90
27978;DHT22;15314;49.248;6.968;2023-12-28T03:21:47;8.30;99.90
27978;DHT22;15314;49.248;6.968;2023-12-28T03:22:47;8.30;99.90
27978;DHT22;15314;49.248;6.968;2023-12-28T03:23:48;8.20;99.90
27978;DHT22;15314;49.248;6.968;2023-12-28T03:24:49;8.20;99.90
27978;DHT22;15314;49.248;6.968;2023-12-28T03:25:50;8.30;99.90
27978;DHT22;15314;49.248;6.968;2023-12-28T03:26:50;8.30;99.90
27978;DHT22;15314;49.248;6.968;2023-12-28T03:27:51;8.30;99.90
27978;DHT22;15314;49.248;6.968;2023-12-28T03:28:51;8.30;99.90
27978;DHT22;15314;49.248;6.968;2023-12-28T03:29:52;8.40;99.90
27978;DHT22;15314;49.248;6.968;2023-12-28T03:30:53;8.40;99.90
27978;DHT22;15314;49.248;6.968;2023-12-28T03:31:53;8.40;99.90
27978;DHT22;15314;49.248;6.968;2023-12-28T03:32:54;8.30;99.90
27978;DHT22;15314;49.248;6.968;2023-12-28T03:33:54;8.30;99.90
27978;DHT22;15314;49.248;6.968;2023-12-28T03:34:55;8.30;99.90
27978;DHT22;15314;49.248;6.968;2023-12-28T03:35:56;8.40;99.90
27978;DHT22;15314;49.248;6.968;2023-12-28T03:36:57;8.30;99.90
27978;DHT22;15314;49.248;6.968;2023-12-28T03:37:58;8.30;99.90
27978;DHT22;15314;49.248;6.968;2023-12-28T03:38:58;8.30;99.90
27978;DHT22;15314;49.248;6.968;2023-12-28T03:39:59;8.20;99.90
27978;DHT22;15314;49.248;6.968;2023-12-28T03:40:59;8.20;99.90
27978;DHT22;15314;49.248;6.968;2023-12-28T03:42:00;8.20;99.90
27978;DHT22;15314;49.248;6.968;2023-12-28T03:43:00;8.10;99.90
27978;DHT22;15314;49.248;6.968;2023-12-28T03:44:01;8.20;99.90
27978;DHT22;15314;49.248;6.968;2023-12-28T03:45:02;8.10;99.90
27978;DHT22;15314;49.248;6.968;2023-12-28T03:46:02;8.10;99.90
27978;DHT22;15314;49.248;6.968;2023-12-28T03:47:03;8.10;99.90
27978;DHT22;15314;49.248;6.968;2023-12-28T03:48:04;8.20;99.90
27978;DHT22;15314;49.248;6.968;2023-12-28T03:49:05;8.10;99.90
27978;DHT22;15314;49.248;6.968;2023-12-28T03:50:06;8.10;99.90
27978;DHT22;15314;49.248;6.968;2023-12-28T03:51:07;8.20;99.90
27978;DHT22;15314;49.248;6.968;2023-12-28T03:52:07;8.20;99.90
27978;DHT22;15314;49.248;6.968;2023-12-28T03:53:08;8.30;99.90
27978;DHT22;15314;49.248;6.968;2023-12-28T03:54:09;8.30;99.90
27978;DHT22;15314;49.248;6.968;2023-12-28T03:55:09;8.30;99.90
27978;DHT22;15314;49.248;6.968;2023-12-28T03:56:24;8.30;99.90
27978;DHT22;15314;49.248;6.968;2023-12-28T03:57:25;8.30;99.90
27978;DHT22;15314;49.248;6.968;2023-12-28T03:58:26;8.30;99.90
27978;DHT22;15314;49.248;6.968;2023-12-28T03:59:27;8.30;99.90
27978;DHT22;15314;49.248;6.968;2023-12-28T04:00:27;8.30;99.90
27978;DHT22;15314;49.248;6.968;2023-12-28T04:01:28;8.30;99.90
27978;DHT22;15314;49.248;6.968;2023-12-28T04:02:28;8.30;99.90
27978;DHT22;15314;49.248;6.968;2023-12-28T04:03:31;8.20;99.90
27978;DHT22;15314;49.248;6.968;2023-12-28T04:04:32;8.30;99.90
27978;DHT22;15314;49.248;6.968;2023-12-28T04:05:32;8.20;99.90
27978;DHT22;15314;49.248;6.968;2023-12-28T04:06:33;8.30;99.90
27978;DHT22;15314;49.248;6.968;2023-12-28T04:07:34;8.30;99.90
27978;DHT22;15314;49.248;6.968;2023-12-28T04:08:34;8.30;99.90
27978;DHT22;15314;49.248;6.968;2023-12-28T04:09:35;8.30;99.90
27978;DHT22;15314;49.248;6.968;2023-12-28T04:10:35;8.40;99.90
27978;DHT22;15314;49.248;6.968;2023-12-28T04:11:37;8.50;99.90
27978;DHT22;15314;49.248;6.968;2023-12-28T04:12:38;8.60;99.90
27978;DHT22;15314;49.248;6.968;2023-12-28T04:13:39;8.60;99.90
27978;DHT22;15314;49.248;6.968;2023-12-28T04:14:39;8.60;99.90
27978;DHT22;15314;49.248;6.968;2023-12-28T04:15:42;8.60;99.90
27978;DHT22;15314;49.248;6.968;2023-12-28T04:16:43;8.70;99.90
27978;DHT22;15314;49.248;6.968;2023-12-28T04:17:44;8.70;99.90
27978;DHT22;15314;49.248;6.968;2023-12-28T04:18:45;8.70;99.90
27978;DHT22;15314;49.248;6.968;2023-12-28T04:19:46;8.80;99.90
27978;DHT22;15314;49.248;6.968;2023-12-28T04:20:46;8.70;99.90
27978;DHT22;15314;49.248;6.968;2023-12-28T04:21:47;8.70;99.90
27978;DHT22;15314;49.248;6.968;2023-12-28T04:22:48;8.70;99.90
27978;DHT22;15314;49.248;6.968;2023-12-28T04:23:48;8.70;99.90
27978;DHT22;15314;49.248;6.968;2023-12-28T04:24:49;8.70;99.90
27978;DHT22;15314;49.248;6.968;2023-12-28T04:25:49;8.70;99.90
27978;DHT22;15314;49.248;6.968;2023-12-28T04:26:50;8.60;99.90
27978;DHT22;15314;49.248;6.968;2023-12-28T04:27:50;8.60;99.90
27978;DHT22;15314;49.248;6.968;2023-12-28T04:28:51;8.60;99.90
27978;DHT22;15314;49.248;6.968;2023-12-28T04:29:52;8.60;99.90
27978;DHT22;15314;49.248;6.968;2023-12-28T04:30:52;8.60;99.90
27978;DHT22;15314;49.248;6.968;2023-12-28T04:31:53;8.60;99.90
27978;DHT22;15314;49.248;6.968;2023-12-28T04:32:54;8.60;99.90
27978;DHT22;15314;49.248;6.968;2023-12-28T04:33:54;8.50;99.90
27978;DHT22;15314;49.248;6.968;2023-12-28T04:34:56;8.60;99.90
27978;DHT22;15314;49.248;6.968;2023-12-28T04:35:57;8.60;99.90
27978;DHT22;15314;49.248;6.968;2023-12-28T04:36:57;8.60;99.90
27978;DHT22;15314;49.248;6.968;2023-12-28T04:37:58;8.50;99.90
27978;DHT22;15314;49.248;6.968;2023-12-28T04:38:59;8.60;99.90
27978;DHT22;15314;49.248;6.968;2023-12-28T04:39:59;8.60;99.90
27978;DHT22;15314;49.248;6.968;2023-12-28T04:41:00;8.40;99.90
27978;DHT22;15314;49.248;6.968;2023-12-28T04:42:01;8.40;99.90
27978;DHT22;15314;49.248;6.968;2023-12-28T04:43:01;8.40;99.90
27978;DHT22;15314;49.248;6.968;2023-12-28T04:44:03;8.40;99.90
27978;DHT22;15314;49.248;6.968;2023-12-28T04:45:04;8.40;99.90
27978;DHT22;15314;49.248;6.968;2023-12-28T04:46:05;8.40;99.90
27978;DHT22;15314;49.248;6.968;2023-12-28T04:47:05;8.50;99.90
27978;DHT22;15314;49.248;6.968;2023-12-28T04:48:06;8.50;99.90
27978;DHT22;15314;49.248;6.968;2023-12-28T04:49:07;8.50;99.90
27978;DHT22;15314;49.248;6.968;2023-12-28T04:50:07;8.60;99.90
27978;DHT22;15314;49.248;6.968;2023-12-28T04:51:08;8.60;99.90
27978;DHT22;15314;49.248;6.968;2023-12-28T04:52:08;8.60;99.90
27978;DHT22;15314;49.248;6.968;2023-12-28T04:53:09;8.70;99.90
27978;DHT22;15314;49.248;6.968;2023-12-28T04:54:10;8.70;99.90
27978;DHT22;15314;49.248;6.968;2023-12-28T04:55:10;8.70;99.90
27978;DHT22;15314;49.248;6.968;2023-12-28T04:56:11;8.70;99.90
27978;DHT22;15314;49.248;6.968;2023-12-28T04:57:12;8.70;99.90
27978;DHT22;15314;49.248;6.968;2023-12-28T04:58:12;8.70;99.90
27978;DHT22;15314;49.248;6.968;2023-12-28T04:59:13;8.70;99.90
27978;DHT22;15314;49.248;6.968;2023-12-28T05:00:14;8.70;99.90
27978;DHT22;15314;49.248;6.968;2023-12-28T05:01:15;8.70;99.90
27978;DHT22;15314;49.248;6.968;2023-12-28T05:02:16;8.70;99.90
27978;DHT22;15314;49.248;6.968;2023-12-28T05:03:16;8.70;99.90
27978;DHT22;15314;49.248;6.968;2023-12-28T05:04:17;8.70;99.90
27978;DHT22;15314;49.248;6.968;2023-12-28T05:05:18;8.60;99.90
27978;DHT22;15314;49.248;6.968;2023-12-28T05:06:18;8.70;99.90
27978;DHT22;15314;49.248;6.968;2023-12-28T05:07:19;8.70;99.90
27978;DHT22;15314;49.248;6.968;2023-12-28T05:08:19;8.70;99.90
27978;DHT22;15314;49.248;6.968;2023-12-28T05:09:20;8.70;99.90
27978;DHT22;15314;49.248;6.968;2023-12-28T05:10:21;8.80;99.90
27978;DHT22;15314;49.248;6.968;2023-12-28T05:11:21;8.80;99.90
27978;DHT22;15314;49.248;6.968;2023-12-28T05:12:22;8.80;99.90
27978;DHT22;15314;49.248;6.968;2023-12-28T05:13:22;8.80;99.90
27978;DHT22;15314;49.248;6.968;2023-12-28T05:14:23;8.80;99.90
27978;DHT22;15314;49.248;6.968;2023-12-28T05:15:24;8.80;99.90
27978;DHT22;15314;49.248;6.968;2023-12-28T05:16:24;8.80;99.90
27978;DHT22;15314;49.248;6.968;2023-12-28T05:17:25;8.80;99.90
27978;DHT22;15314;49.248;6.968;2023-12-28T05:18:25;8.90;99.90
27978;DHT22;15314;49.248;6.968;2023-12-28T05:19:26;8.90;99.90
27978;DHT22;15314;49.248;6.968;2023-12-28T05:20:27;8.80;99.90
27978;DHT22;15314;49.248;6.968;2023-12-28T05:21:28;8.80;99.90
27978;DHT22;15314;49.248;6.968;2023-12-28T05:22:28;8.70;99.90
27978;DHT22;15314;49.248;6.968;2023-12-28T05:23:29;8.70;99.90
27978;DHT22;15314;49.248;6.968;2023-12-28T05:24:29;8.80;99.90
27978;DHT22;15314;49.248;6.968;2023-12-28T05:25:30;8.90;99.90
27978;DHT22;15314;49.248;6.968;2023-12-28T05:26:31;8.90;99.90
27978;DHT22;15314;49.248;6.968;2023-12-28T05:27:31;8.90;99.90
27978;DHT22;15314;49.248;6.968;2023-12-28T05:28:32;8.90;99.90
27978;DHT22;15314;49.248;6.968;2023-12-28T05:29:33;8.90;99.90
27978;DHT22;15314;49.248;6.968;2023-12-28T05:30:35;8.80;99.90
27978;DHT22;15314;49.248;6.968;2023-12-28T05:31:36;8.90;99.90
27978;DHT22;15314;49.248;6.968;2023-12-28T05:32:37;8.80;99.90
27978;DHT22;15314;49.248;6.968;2023-12-28T05:33:37;8.80;99.90
27978;DHT22;15314;49.248;6.968;2023-12-28T05:34:38;8.80;99.90
27978;DHT22;15314;49.248;6.968;2023-12-28T05:35:38;8.80;99.90
27978;DHT22;15314;49.248;6.968;2023-12-28T05:36:39;8.80;99.90
27978;DHT22;15314;49.248;6.968;2023-12-28T05:37:41;8.80;99.90
27978;DHT22;15314;49.248;6.968;2023-12-28T05:38:42;8.80;99.90
27978;DHT22;15314;49.248;6.968;2023-12-28T05:39:42;8.80;99.90
27978;DHT22;15314;49.248;6.968;2023-12-28T05:40:44;8.80;99.90
27978;DHT22;15314;49.248;6.968;2023-12-28T05:41:47;8.80;99.90
27978;DHT22;15314;49.248;6.968;2023-12-28T05:42:50;8.80;99.90
27978;DHT22;15314;49.248;6.968;2023-12-28T05:43:51;8.80;99.90
27978;DHT22;15314;49.248;6.968;2023-12-28T05:44:51;8.80;99.90
27978;DHT22;15314;49.248;6.968;2023-12-28T05:45:52;8.80;99.90
27978;DHT22;15314;49.248;6.968;2023-12-28T05:46:53;8.90;99.90
27978;DHT22;15314;49.248;6.968;2023-12-28T05:47:53;8.90;99.90
27978;DHT22;15314;49.248;6.968;2023-12-28T05:48:54;8.80;99.90
27978;DHT22;15314;49.248;6.968;2023-12-28T05:49:55;8.80;99.90
27978;DHT22;15314;49.248;6.968;2023-12-28T05:50:57;8.80;99.90
27978;DHT22;15314;49.248;6.968;2023-12-28T05:51:58;8.70;99.90
27978;DHT22;15314;49.248;6.968;2023-12-28T05:52:59;8.70;99.90
27978;DHT22;15314;49.248;6.968;2023-12-28T05:53:59;8.80;99.90
27978;DHT22;15314;49.248;6.968;2023-12-28T05:55:00;8.80;99.90
27978;DHT22;15314;49.248;6.968;2023-12-28T05:56:01;8.80;99.90
27978;DHT22;15314;49.248;6.968;2023-12-28T05:57:04;8.70;99.90
27978;DHT22;15314;49.248;6.968;2023-12-28T05:58:04;8.70;99.90
27978;DHT22;15314;49.248;6.968;2023-12-28T05:59:05;8.70;99.90
27978;DHT22;15314;49.248;6.968;2023-12-28T06:00:06;8.80;99.90
27978;DHT22;15314;49.248;6.968;2023-12-28T06:01:07;8.70;99.90
27978;DHT22;15314;49.248;6.968;2023-12-28T06:02:07;8.70;99.90
27978;DHT22;15314;49.248;6.968;2023-12-28T06:03:08;8.70;99.90
27978;DHT22;15314;49.248;6.968;2023-12-28T06:04:09;8.70;99.90
27978;DHT22;15314;49.248;6.968;2023-12-28T06:05:09;8.70;99.90
27978;DHT22;15314;49.248;6.968;2023-12-28T06:06:10;8.70;99.90
27978;DHT22;15314;49.248;6.968;2023-12-28T06:07:11;8.70;99.90
27978;DHT22;15314;49.248;6.968;2023-12-28T06:08:11;8.70;99.90
27978;DHT22;15314;49.248;6.968;2023-12-28T06:09:12;8.70;99.90
27978;DHT22;15314;49.248;6.968;2023-12-28T06:10:13;8.70;99.90
27978;DHT22;15314;49.248;6.968;2023-12-28T06:11:14;8.80;99.90
27978;DHT22;15314;49.248;6.968;2023-12-28T06:12:14;8.80;99.90
27978;DHT22;15314;49.248;6.968;2023-12-28T06:13:15;8.80;99.90
27978;DHT22;15314;49.248;6.968;2023-12-28T06:14:16;8.90;99.90
27978;DHT22;15314;49.248;6.968;2023-12-28T06:15:16;8.90;99.90
27978;DHT22;15314;49.248;6.968;2023-12-28T06:16:17;8.90;99.90
27978;DHT22;15314;49.248;6.968;2023-12-28T06:17:18;9.00;99.90
27978;DHT22;15314;49.248;6.968;2023-12-28T06:18:19;9.00;99.90
27978;DHT22;15314;49.248;6.968;2023-12-28T06:19:19;8.90;99.90
27978;DHT22;15314;49.248;6.968;2023-12-28T06:20:20;9.00;99.90
27978;DHT22;15314;49.248;6.968;2023-12-28T06:21:21;9.00;99.90
27978;DHT22;15314;49.248;6.968;2023-12-28T06:22:21;9.00;99.90
27978;DHT22;15314;49.248;6.968;2023-12-28T06:23:22;9.00;99.90
27978;DHT22;15314;49.248;6.968;2023-12-28T06:24:23;9.00;99.90
27978;DHT22;15314;49.248;6.968;2023-12-28T06:25:23;9.00;99.90
27978;DHT22;15314;49.248;6.968;2023-12-28T06:26:24;9.00;99.90
27978;DHT22;15314;49.248;6.968;2023-12-28T06:27:24;9.00;99.90
27978;DHT22;15314;49.248;6.968;2023-12-28T06:28:25;9.00;99.90
27978;DHT22;15314;49.248;6.968;2023-12-28T06:29:26;9.00;99.90
27978;DHT22;15314;49.248;6.968;2023-12-28T06:30:26;9.00;99.90
27978;DHT22;15314;49.248;6.968;2023-12-28T06:31:27;9.00;99.90
27978;DHT22;15314;49.248;6.968;2023-12-28T06:32:27;9.00;99.90